createdAt,value
2018-11-06T00:01:12.033Z,20.37
2018-11-06T00:06:15.167Z,19.17
2018-11-06T00:11:18.209Z,20.17
2018-11-06T00:16:21.263Z,21.27
2018-11-06T00:21:24.272Z,18.80
2018-11-06T00:26:27.355Z,18.67
2018-11-06T00:31:30.411Z,19.87
2018-11-06T00:36:33.433Z,19.47
2018-11-06T00:41:36.554Z,18.23
2018-11-06T00:46:39.569Z,17.87
2018-11-06T00:51:42.697Z,14.70
2018-11-06T00:56:45.705Z,15.80
2018-11-06T01:01:48.779Z,16.60
2018-11-06T01:06:51.827Z,16.50
2018-11-06T01:11:54.869Z,15.37
2018-11-06T01:16:57.901Z,13.70
2018-11-06T01:22:00.949Z,15.80
2018-11-06T01:27:04.310Z,14.87
2018-11-06T01:32:07.364Z,14.83
2018-11-06T01:37:10.369Z,14.87
2018-11-06T01:42:13.470Z,15.37
2018-11-06T01:47:16.521Z,14.30
2018-11-06T01:52:19.540Z,15.07
2018-11-06T01:57:22.659Z,14.50
2018-11-06T02:02:25.822Z,13.80
2018-11-06T02:07:28.849Z,13.00
2018-11-06T02:12:32.529Z,12.30
2018-11-06T02:17:35.651Z,10.70
2018-11-06T02:22:39.394Z,11.17
2018-11-06T02:27:42.438Z,11.40
2018-11-06T02:32:46.457Z,12.27
2018-11-06T02:37:49.483Z,11.20
2018-11-06T02:42:52.471Z,10.73
2018-11-06T02:47:55.480Z,11.57
2018-11-06T02:52:58.511Z,11.33
2018-11-06T02:58:01.497Z,12.43
2018-11-06T03:03:04.783Z,12.00
2018-11-06T03:08:07.805Z,10.70
2018-11-06T03:13:10.818Z,9.40
2018-11-06T03:18:13.830Z,11.07
2018-11-06T03:23:16.834Z,10.00
2018-11-06T03:28:19.871Z,10.63
2018-11-06T03:33:22.955Z,10.30
2018-11-06T03:38:26.004Z,9.77
2018-11-06T03:43:29.017Z,9.43
2018-11-06T03:48:32.073Z,8.40
2018-11-06T03:53:35.124Z,7.00
2018-11-06T03:58:38.146Z,7.23
2018-11-06T04:03:41.211Z,8.03
2018-11-06T04:08:44.205Z,8.80
2018-11-06T04:13:47.205Z,10.67
2018-11-06T04:18:50.430Z,11.10
2018-11-06T04:23:53.500Z,10.90
2018-11-06T04:28:56.523Z,9.70
2018-11-06T04:33:59.667Z,10.30
2018-11-06T04:39:03.980Z,9.87
2018-11-06T04:44:07.420Z,10.27
2018-11-06T04:49:10.435Z,8.63
2018-11-06T04:54:13.436Z,8.10
2018-11-06T04:59:16.457Z,6.10
2018-11-06T05:04:19.514Z,7.90
2018-11-06T05:09:22.607Z,9.23
2018-11-06T05:14:25.688Z,7.40
2018-11-06T05:19:28.688Z,6.70
2018-11-06T05:24:33.250Z,6.90
2018-11-06T05:29:36.366Z,6.53
2018-11-06T05:34:39.459Z,7.10
2018-11-06T05:40:00.039Z,7.77
2018-11-06T05:45:03.105Z,7.80
2018-11-06T05:50:06.299Z,7.47
2018-11-06T05:55:09.346Z,8.20
2018-11-06T06:00:12.420Z,9.63
2018-11-06T06:05:15.451Z,8.23
2018-11-06T06:10:18.470Z,5.67
2018-11-06T06:15:28.172Z,7.53
2018-11-06T06:20:31.287Z,7.77
2018-11-06T06:25:34.371Z,8.30
2018-11-06T06:30:37.433Z,7.50
2018-11-06T06:35:40.464Z,7.63
2018-11-06T06:40:43.581Z,7.83
2018-11-06T06:45:46.663Z,7.80
2018-11-06T06:50:49.849Z,7.97
2018-11-06T06:55:52.970Z,9.10
2018-11-06T07:00:59.598Z,7.57
2018-11-06T07:06:02.783Z,8.00
2018-11-06T07:11:05.975Z,7.57
2018-11-06T07:16:09.128Z,8.37
2018-11-06T07:21:12.242Z,7.90
2018-11-06T07:26:15.416Z,8.43
2018-11-06T07:31:18.621Z,7.30
2018-11-06T07:36:21.821Z,8.33
2018-11-06T07:41:25.027Z,8.83
2018-11-06T07:46:28.163Z,9.77
2018-11-06T07:51:31.358Z,10.67
2018-11-06T07:56:34.527Z,10.40
2018-11-06T08:01:40.728Z,11.80
2018-11-06T08:06:43.906Z,9.97
2018-11-06T08:11:46.996Z,12.10
2018-11-06T08:16:50.129Z,12.47
2018-11-06T08:21:53.231Z,12.60
2018-11-06T08:26:56.424Z,11.97
2018-11-06T08:32:00.425Z,13.73
2018-11-06T08:37:02.702Z,14.77
2018-11-06T08:42:06.269Z,15.57
2018-11-06T08:47:09.315Z,18.40
2018-11-06T08:52:12.356Z,19.47
2018-11-06T08:57:15.422Z,20.97
2018-11-06T09:02:18.514Z,21.00
2018-11-06T09:07:21.539Z,20.47
2018-11-06T09:12:24.583Z,20.40
2018-11-06T09:17:27.669Z,20.37
2018-11-06T09:22:30.799Z,20.33
2018-11-06T09:27:33.855Z,20.63
2018-11-06T09:32:36.923Z,20.27
2018-11-06T09:37:40.754Z,23.30
2018-11-06T09:42:43.799Z,20.17
2018-11-06T09:47:46.852Z,19.60
2018-11-06T09:52:50.015Z,18.73
2018-11-06T09:57:53.041Z,19.40
2018-11-06T10:02:56.078Z,19.03
2018-11-06T10:07:59.110Z,18.60
2018-11-06T10:13:02.145Z,17.30
2018-11-06T10:18:05.996Z,17.80
2018-11-06T10:23:09.044Z,19.67
2018-11-06T10:28:12.099Z,17.30
2018-11-06T10:33:15.157Z,17.30
2018-11-06T10:38:18.241Z,16.83
2018-11-06T10:43:21.294Z,16.07
2018-11-06T10:48:24.343Z,16.77
2018-11-06T10:53:27.490Z,15.70
2018-11-06T10:58:30.551Z,15.60
2018-11-06T11:03:34.738Z,14.00
2018-11-06T11:08:37.779Z,14.63
2018-11-06T11:13:40.828Z,13.10
2018-11-06T11:18:43.908Z,14.00
2018-11-06T11:23:46.959Z,13.07
2018-11-06T11:28:50.031Z,13.00
2018-11-06T11:33:53.091Z,13.57
2018-11-06T11:38:56.094Z,13.73
2018-11-06T11:43:59.102Z,14.67
2018-11-06T11:49:02.140Z,13.00
2018-11-06T11:54:05.505Z,15.13
2018-11-06T11:59:08.454Z,14.97
2018-11-06T12:04:11.532Z,13.93
2018-11-06T12:09:14.572Z,13.77
2018-11-06T12:14:17.663Z,14.40
2018-11-06T12:19:20.683Z,13.97
2018-11-06T12:24:23.777Z,13.93
2018-11-06T12:29:26.791Z,14.17
2018-11-06T12:34:29.796Z,13.37
2018-11-06T12:39:32.831Z,12.63
2018-11-06T12:44:35.884Z,12.73
2018-11-06T12:49:38.941Z,12.90
2018-11-06T12:54:42.035Z,11.50
2018-11-06T12:59:45.102Z,11.73
2018-11-06T13:04:48.176Z,11.30
2018-11-06T13:09:51.290Z,11.10
2018-11-06T13:14:55.257Z,11.13
2018-11-06T13:19:57.391Z,10.80
2018-11-06T13:25:00.438Z,11.40
2018-11-06T13:30:03.712Z,21.40
2018-11-06T13:35:07.135Z,16.40
2018-11-06T13:40:12.626Z,10.07
2018-11-06T13:45:18.348Z,10.97
2018-11-06T13:50:21.234Z,9.70
2018-11-06T13:55:24.323Z,11.10
2018-11-06T14:00:27.450Z,16.47
2018-11-06T14:05:30.514Z,12.63
2018-11-06T14:10:33.580Z,25.23
2018-11-06T14:15:36.614Z,13.70
2018-11-06T14:20:39.665Z,12.40
2018-11-06T14:25:42.752Z,11.00
2018-11-06T14:30:45.808Z,14.00
2018-11-06T14:35:48.957Z,12.07
2018-11-06T14:40:51.986Z,11.90
2018-11-06T14:45:55.053Z,12.33
2018-11-06T14:50:58.124Z,12.93
2018-11-06T14:56:01.222Z,13.53
2018-11-06T15:01:04.375Z,45.83
2018-11-06T15:06:07.459Z,17.97
2018-11-06T15:11:10.488Z,14.80
2018-11-06T15:16:13.539Z,14.60
2018-11-06T15:21:16.598Z,16.77
2018-11-06T15:26:19.707Z,15.17
2018-11-06T15:31:22.939Z,13.97
2018-11-06T15:36:25.982Z,13.73
2018-11-06T15:41:29.101Z,14.87
2018-11-06T15:46:32.084Z,14.53
2018-11-06T15:51:35.139Z,14.47
2018-11-06T15:56:38.182Z,15.20
2018-11-06T16:01:41.674Z,15.10
2018-11-06T16:06:44.726Z,14.50
2018-11-06T16:11:47.748Z,16.47
2018-11-06T16:16:50.822Z,15.63
2018-11-06T16:21:53.854Z,16.73
2018-11-06T16:26:56.903Z,15.80
2018-11-06T16:32:01.300Z,16.87
2018-11-06T16:37:04.721Z,16.40
2018-11-06T16:42:07.839Z,15.63
2018-11-06T16:47:10.985Z,15.47
2018-11-06T16:52:14.067Z,16.27
2018-11-06T16:57:17.263Z,16.47
2018-11-06T17:02:20.341Z,15.90
2018-11-06T17:07:23.536Z,17.20
2018-11-06T17:12:26.646Z,16.33
2018-11-06T17:17:29.733Z,15.63
2018-11-06T17:22:33.011Z,17.07
2018-11-06T17:27:36.337Z,15.13
2018-11-06T17:32:39.937Z,16.37
2018-11-06T17:37:43.065Z,17.10
2018-11-06T17:42:46.186Z,16.77
2018-11-06T17:47:49.278Z,15.70
2018-11-06T17:52:52.559Z,17.80
2018-11-06T17:57:55.602Z,18.73
2018-11-06T18:02:58.660Z,17.67
2018-11-06T18:08:01.766Z,18.27
2018-11-06T18:13:04.927Z,16.60
2018-11-06T18:18:07.993Z,16.07
2018-11-06T18:23:11.039Z,14.60
2018-11-06T18:28:14.066Z,17.27
2018-11-06T18:33:17.134Z,14.63
2018-11-06T18:38:20.261Z,16.10
2018-11-06T18:43:23.385Z,15.90
2018-11-06T18:48:26.454Z,16.20
2018-11-06T18:53:29.549Z,17.10
2018-11-06T18:58:32.610Z,17.50
2018-11-06T19:03:36.126Z,18.27
2018-11-06T19:08:41.479Z,17.80
2018-11-06T19:13:46.297Z,17.37
2018-11-06T19:18:49.522Z,19.37
2018-11-06T19:23:54.223Z,17.20
2018-11-06T19:28:57.564Z,17.20
2018-11-06T19:34:00.578Z,17.17
2018-11-06T19:39:07.479Z,17.77
2018-11-06T19:44:10.523Z,16.90
2018-11-06T19:49:13.571Z,18.37
2018-11-06T19:54:16.692Z,19.10
2018-11-06T19:59:19.678Z,19.53
2018-11-06T20:04:22.782Z,18.20
2018-11-06T20:09:25.883Z,19.83
2018-11-06T20:14:28.903Z,19.60
2018-11-06T20:19:31.941Z,18.70
2018-11-06T20:24:34.995Z,19.70
2018-11-06T20:29:38.170Z,19.70
2018-11-06T20:34:41.433Z,18.50
2018-11-06T20:39:46.344Z,20.30
2018-11-06T20:44:49.567Z,18.70
2018-11-06T20:49:52.913Z,20.73
2018-11-06T20:54:56.174Z,21.03
2018-11-06T20:59:59.263Z,22.83
2018-11-06T21:05:02.316Z,24.37
2018-11-06T21:10:06.120Z,20.00
2018-11-06T21:15:10.542Z,18.43
2018-11-06T21:20:14.311Z,18.77
2018-11-06T21:25:17.418Z,17.27
2018-11-06T21:30:21.052Z,20.33
2018-11-06T21:35:24.072Z,19.77
2018-11-06T21:40:27.112Z,18.47
2018-11-06T21:45:30.155Z,18.93
2018-11-06T21:50:33.206Z,20.13
2018-11-06T21:55:36.259Z,18.73
2018-11-06T22:00:39.368Z,18.30
2018-11-06T22:05:42.379Z,18.70
2018-11-06T22:10:45.388Z,20.60
2018-11-06T22:15:48.443Z,18.57
2018-11-06T22:20:51.470Z,20.13
2018-11-06T22:25:54.490Z,20.70
2018-11-06T22:30:57.535Z,22.67
2018-11-06T22:36:00.567Z,20.13
2018-11-06T22:41:03.620Z,19.40
2018-11-06T22:46:06.665Z,20.07
2018-11-06T22:51:09.699Z,20.73
2018-11-06T22:56:12.731Z,18.57
2018-11-06T23:01:21.304Z,18.43
2018-11-06T23:06:24.513Z,17.73
2018-11-06T23:11:27.414Z,17.40
2018-11-06T23:16:30.447Z,15.40
2018-11-06T23:21:33.485Z,16.40
2018-11-06T23:26:36.516Z,18.00
2018-11-06T23:31:39.592Z,16.37
2018-11-06T23:36:42.603Z,15.40
2018-11-06T23:41:45.635Z,15.53
2018-11-06T23:46:48.646Z,17.60
2018-11-06T23:51:51.720Z,17.33
2018-11-06T23:56:54.761Z,15.80
